Time;durP1;ratioP1;P1;durP2;ratioP2;P2;SDS_P1;SDS_P2;PMS_P1;PMS_P2;Temp;Humidity;BMP_temperature;BMP_pressure;BME280_temperature;BME280_humidity;BME280_pressure;Samples;Min_cycle;Max_cycle;Signal;HPM_P1;HPM_P2
2023/08/16 00:01:05;;;;;;;6.65;4.80;;;;;;;40.83;20.18;100575.47;5011141;28;20053;-77
2023/08/16 00:03:41;;;;;;;7.05;4.93;;;;;;;40.73;20.57;100572.84;5006311;28;20129;-79
2023/08/16 00:06:11;;;;;;;5.70;5.13;;;;;;;40.76;20.82;100577.13;5002943;28;20046;-81
2023/08/16 00:08:42;;;;;;;13.57;5.53;;;;;;;40.66;20.23;100570.88;5009167;28;20050;-77
2023/08/16 00:11:20;;;;;;;9.43;5.40;;;;;;;40.66;21.23;100569.00;5002813;28;20447;-76
2023/08/16 00:13:49;;;;;;;7.85;4.80;;;;;;;40.68;20.10;100566.13;5011293;28;20077;-81
2023/08/16 00:16:26;;;;;;;8.20;4.75;;;;;;;40.69;22.19;100565.16;5001573;28;20042;-74
2023/08/16 00:18:57;;;;;;;7.13;4.60;;;;;;;40.71;22.15;100555.00;5012546;28;20168;-77
2023/08/16 00:21:25;;;;;;;;;;;;;;;40.71;21.28;100555.00;5006804;28;20053;-74
2023/08/16 00:23:55;;;;;;;7.97;5.30;;;;;;;40.72;23.40;100554.00;5009411;28;20076;-77
2023/08/16 00:26:24;;;;;;;8.53;4.93;;;;;;;40.68;22.94;100548.00;5016102;28;20054;-77
2023/08/16 00:28:53;;;;;;;7.15;4.97;;;;;;;40.65;22.52;100552.91;5011787;28;20050;-77
2023/08/16 00:31:22;;;;;;;5.15;4.65;;;;;;;40.63;22.52;100556.59;5006370;28;20586;-79
2023/08/16 00:33:51;;;;;;;6.30;5.07;;;;;;;40.60;21.22;100556.94;5003738;28;20097;-73
2023/08/16 00:36:19;;;;;;;6.25;5.53;;;;;;;40.50;21.11;100553.44;5006361;28;20046;-74
2023/08/16 00:38:48;;;;;;;8.95;5.38;;;;;;;40.44;21.13;100554.06;5007211;28;20046;-75
2023/08/16 00:41:27;;;;;;;10.43;5.03;;;;;;;40.42;21.08;100550.66;5001670;28;20050;-77
2023/08/16 00:43:56;;;;;;;9.75;5.20;;;;;;;40.36;20.69;100548.53;5000281;28;20527;-76
2023/08/16 00:46:27;;;;;;;7.95;5.50;;;;;;;40.34;21.80;100561.38;4999060;28;20050;-76
2023/08/16 00:48:56;;;;;;;7.57;5.22;;;;;;;40.26;21.67;100553.19;5008115;28;20053;-73
2023/08/16 00:51:25;;;;;;;9.80;5.97;;;;;;;40.21;22.15;100557.16;5005850;28;20061;-77
2023/08/16 00:53:54;;;;;;;7.20;5.53;;;;;;;40.10;21.66;100549.25;5017187;28;20053;-76
2023/08/16 00:56:25;;;;;;;7.65;5.68;;;;;;;40.10;22.55;100551.97;5004330;28;20045;-75
2023/08/16 00:58:56;;;;;;;6.45;4.75;;;;;;;40.13;23.23;100554.34;5005092;28;20050;-74
2023/08/16 01:01:31;;;;;;;;;;;;;;;40.15;23.71;100546.94;5011563;28;20052;-75
2023/08/16 01:04:00;;;;;;;7.10;4.65;;;;;;;40.12;24.29;100551.81;5020733;28;19945;-76
2023/08/16 01:06:29;;;;;;;8.35;5.25;;;;;;;40.05;21.97;100559.69;5016002;28;20041;-73
2023/08/16 01:09:18;;;;;;;8.05;5.50;;;;;;;39.96;21.83;100555.19;5007188;28;20085;-76
2023/08/16 01:12:09;;;;;;;9.05;5.38;;;;;;;39.92;21.58;100557.34;5002204;28;20121;-78
2023/08/16 01:14:44;;;;;;;;;;;;;;;39.81;21.94;100549.38;5006928;28;20049;-78
2023/08/16 01:17:17;;;;;;;6.32;4.93;;;;;;;39.79;22.92;100554.06;5012560;28;19929;-83
2023/08/16 01:19:47;;;;;;;8.07;5.78;;;;;;;39.73;22.42;100552.84;5007907;28;20097;-74
2023/08/16 01:22:27;;;;;;;8.68;6.22;;;;;;;39.61;22.43;100545.91;5005569;28;20046;-78
2023/08/16 01:25:13;;;;;;;14.48;5.57;;;;;;;39.54;23.29;100542.94;5011703;28;20049;-72
2023/08/16 01:27:44;;;;;;;8.77;5.05;;;;;;;39.52;22.62;100549.50;5013268;28;20046;-72
2023/08/16 01:30:20;;;;;;;;;;;;;;;39.48;24.17;100545.38;5006604;28;20050;-73
2023/08/16 01:32:49;;;;;;;7.45;5.22;;;;;;;39.44;23.19;100552.09;5004908;28;19960;-73
2023/08/16 01:35:18;;;;;;;10.05;5.28;;;;;;;39.42;23.81;100545.97;5008093;28;20416;-72
2023/08/16 01:37:47;;;;;;;10.98;5.57;;;;;;;39.37;23.64;100547.25;5007505;28;20062;-73
2023/08/16 01:40:18;;;;;;;10.45;6.07;;;;;;;39.34;24.18;100547.53;5014356;28;20054;-73
2023/08/16 01:42:52;;;;;;;9.90;5.20;;;;;;;39.28;23.84;100548.09;5009608;28;20060;-72
2023/08/16 01:45:22;;;;;;;11.73;5.80;;;;;;;39.22;23.68;100543.28;5009922;28;20049;-74
2023/08/16 01:47:53;;;;;;;11.40;5.22;;;;;;;39.19;24.94;100543.56;5003028;28;20052;-72
2023/08/16 01:50:22;;;;;;;9.27;5.45;;;;;;;39.13;24.15;100544.16;5007190;28;20054;-75
2023/08/16 01:52:53;;;;;;;12.40;6.37;;;;;;;39.06;24.06;100540.31;5008222;28;20057;-74
2023/08/16 01:55:21;;;;;;;7.22;5.28;;;;;;;39.01;25.56;100546.16;5020100;28;20050;-75
2023/08/16 01:57:52;;;;;;;8.25;5.97;;;;;;;38.89;25.39;100548.13;5006692;28;20045;-76
2023/08/16 02:00:23;;;;;;;7.85;5.32;;;;;;;38.81;26.20;100550.72;5011917;28;20061;-75
2023/08/16 02:02:51;;;;;;;9.98;6.38;;;;;;;38.74;25.46;100546.88;5005771;28;20100;-76
2023/08/16 02:05:20;;;;;;;7.90;5.43;;;;;;;38.66;27.33;100547.56;5005936;28;20554;-78
2023/08/16 02:07:48;;;;;;;8.27;5.45;;;;;;;38.55;26.75;100545.00;5016682;28;20577;-76
2023/08/16 02:10:18;;;;;;;10.95;5.90;;;;;;;38.44;27.13;100556.78;5005757;28;20077;-79
2023/08/16 02:12:54;;;;;;;8.25;5.60;;;;;;;38.32;27.41;100549.78;5016084;28;20057;-79
2023/08/16 02:15:24;;;;;;;10.68;5.22;;;;;;;38.21;26.79;100555.31;5021984;28;20038;-76
2023/08/16 02:17:53;;;;;;;7.43;4.90;;;;;;;38.11;27.80;100553.44;5024307;28;20030;-80
2023/08/16 02:20:21;;;;;;;7.55;5.53;;;;;;;38.01;27.96;100557.13;5027901;28;20038;-77
2023/08/16 02:22:55;;;;;;;10.32;5.90;;;;;;;37.87;27.86;100555.63;5017236;28;20049;-82
2023/08/16 02:25:24;;;;;;;7.93;5.38;;;;;;;37.77;28.50;100560.13;5016054;28;20050;-80
2023/08/16 02:27:53;;;;;;;11.85;6.00;;;;;;;37.65;28.72;100565.59;5003514;28;20057;-81
2023/08/16 02:30:23;;;;;;;8.45;5.60;;;;;;;37.55;28.79;100567.41;4997511;28;20070;-80
2023/08/16 02:33:04;;;;;;;10.97;5.80;;;;;;;37.42;28.98;100556.78;5006614;28;20419;-79
2023/08/16 02:35:33;;;;;;;10.70;5.82;;;;;;;37.33;29.35;100562.13;5005426;28;20057;-79
2023/08/16 02:38:02;;;;;;;7.90;5.60;;;;;;;37.23;29.81;100568.34;5008508;28;20046;-79
2023/08/16 02:40:34;;;;;;;8.75;5.10;;;;;;;37.12;30.49;100571.09;5003612;28;20070;-78
2023/08/16 02:43:03;;;;;;;8.02;5.45;;;;;;;37.02;30.78;100568.28;5005077;28;20120;-78
2023/08/16 02:45:33;;;;;;;8.30;5.53;;;;;;;36.92;31.33;100569.19;5009406;28;20073;-78
2023/08/16 02:48:01;;;;;;;11.40;5.88;;;;;;;36.79;30.96;100572.94;5005113;28;20510;-76
2023/08/16 02:50:31;;;;;;;14.73;6.13;;;;;;;36.70;30.97;100576.41;5013316;28;20054;-79
2023/08/16 02:53:02;;;;;;;10.02;5.47;;;;;;;36.58;30.79;100577.38;5017829;28;20107;-77
2023/08/16 02:55:31;;;;;;;11.20;5.88;;;;;;;36.46;31.08;100574.72;5017357;28;20088;-79
2023/08/16 02:57:59;;;;;;;15.20;5.72;;;;;;;36.35;30.90;100576.59;5002998;28;20523;-80
2023/08/16 03:00:28;;;;;;;11.88;5.85;;;;;;;36.23;31.24;100579.28;5001627;28;20496;-80
2023/08/16 03:03:06;;;;;;;11.70;5.82;;;;;;;36.12;31.25;100592.78;5006496;28;20042;-79
2023/08/16 03:05:34;;;;;;;11.10;5.45;;;;;;;35.98;31.37;100579.53;5005227;28;20046;-80
2023/08/16 03:08:03;;;;;;;8.98;5.60;;;;;;;35.88;31.21;100582.13;5009867;28;20420;-81
2023/08/16 03:10:32;;;;;;;7.85;5.95;;;;;;;35.76;32.01;100583.09;5013546;28;20065;-80
2023/08/16 03:13:00;;;;;;;10.10;5.75;;;;;;;35.64;32.21;100583.09;5011479;28;20057;-78
2023/08/16 03:15:32;;;;;;;8.90;5.80;;;;;;;35.53;32.48;100585.75;5009658;28;20049;-80
2023/08/16 03:18:03;;;;;;;10.02;6.07;;;;;;;35.41;32.69;100586.69;5005592;28;20097;-79
2023/08/16 03:20:32;;;;;;;9.80;5.93;;;;;;;35.28;32.41;100592.16;5004631;28;20128;-77
2023/08/16 03:23:10;;;;;;;;;;;;;;;;;;;;;
2023/08/16 03:25:40;;;;;;;11.13;6.15;;;;;;;35.05;33.02;100591.22;4999874;28;20056;-76
2023/08/16 03:28:09;;;;;;;8.02;6.30;;;;;;;34.93;33.61;100597.50;4999721;28;20065;-79
2023/08/16 03:30:37;;;;;;;11.07;6.57;;;;;;;34.83;34.40;100597.34;5002223;28;20050;-77
2023/08/16 03:33:13;;;;;;;9.98;5.93;;;;;;;34.72;34.63;100605.34;5000663;28;20177;-77
2023/08/16 03:35:41;;;;;;;10.77;6.38;;;;;;;34.60;34.89;100605.25;5003877;28;20065;-79
2023/08/16 03:38:10;;;;;;;15.18;6.07;;;;;;;34.50;35.03;100606.03;4998974;28;20488;-82
2023/08/16 03:40:41;;;;;;;7.53;5.88;;;;;;;34.39;35.17;100607.69;5000555;28;20067;-80
2023/08/16 03:43:17;;;;;;;11.77;6.57;;;;;;;34.28;35.32;100610.31;5012372;28;20050;-79
2023/08/16 03:45:46;;;;;;;9.23;6.18;;;;;;;34.20;35.58;100618.03;5007141;28;20554;-78
2023/08/16 03:48:16;;;;;;;8.35;6.25;;;;;;;34.10;35.72;100619.69;5005667;28;20057;-78
2023/08/16 03:50:45;;;;;;;9.40;6.10;;;;;;;33.98;36.14;100622.25;5004266;28;20049;-79
2023/08/16 03:53:21;;;;;;;8.93;5.85;;;;;;;33.90;36.82;100618.38;5009902;28;20046;-78
2023/08/16 03:55:49;;;;;;;6.85;5.88;;;;;;;33.77;37.39;100621.94;5008993;28;20716;-79
2023/08/16 03:58:18;;;;;;;12.57;6.40;;;;;;;33.68;37.83;100633.31;5009398;28;20119;-74
2023/08/16 04:00:50;;;;;;;9.07;6.28;;;;;;;33.58;38.40;100634.91;5004087;28;20053;-76
2023/08/16 04:03:21;;;;;;;;;;;;;;;33.49;39.30;100639.06;5004108;28;20050;-78
2023/08/16 04:05:50;;;;;;;11.48;5.93;;;;;;;33.38;39.68;100638.94;5006033;28;19929;-76
2023/08/16 04:08:18;;;;;;;9.48;6.18;;;;;;;33.30;40.30;100650.16;5005030;28;20058;-75
2023/08/16 04:13:28;;;;;;;;;;;;;;;33.09;41.93;100649.78;5000200;28;20053;-73
2023/08/16 04:15:56;;;;;;;8.23;5.70;;;;;;;33.01;41.14;100651.22;5008062;28;19976;-75
2023/08/16 04:18:27;;;;;;;8.05;5.95;;;;;;;32.91;41.62;100657.19;5000033;28;20682;-77
2023/08/16 04:21:05;;;;;;;11.03;6.50;;;;;;;32.83;41.29;100661.34;5002460;28;20052;-79
2023/08/16 04:23:34;;;;;;;10.52;6.38;;;;;;;32.74;41.31;100660.97;5004426;28;20050;-77
2023/08/16 04:26:02;;;;;;;12.20;6.70;;;;;;;32.65;40.93;100664.25;5011088;28;20057;-76
2023/08/16 04:28:31;;;;;;;11.10;7.13;;;;;;;32.57;41.20;100671.91;5004235;28;20133;-76
2023/08/16 04:31:06;;;;;;;8.27;6.28;;;;;;;32.49;41.59;100679.56;5003759;28;20058;-77
2023/08/16 04:33:37;;;;;;;9.35;6.15;;;;;;;32.39;41.75;100681.09;5002073;28;20041;-79
2023/08/16 04:36:09;;;;;;;11.80;6.70;;;;;;;32.31;41.66;100690.47;5001115;28;20106;-76
2023/08/16 04:38:47;;;;;;;10.05;6.75;;;;;;;32.25;41.88;100690.00;5007688;28;20594;-79
2023/08/16 04:41:16;;;;;;;15.38;6.47;;;;;;;32.18;41.37;100692.19;5000380;28;20042;-77
2023/08/16 04:43:44;;;;;;;11.20;6.72;;;;;;;32.12;40.74;100700.63;5010064;28;20125;-80
2023/08/16 04:46:13;;;;;;;8.68;6.28;;;;;;;32.01;40.75;100692.38;5005954;28;20118;-78
2023/08/16 04:48:43;;;;;;;12.98;6.63;;;;;;;31.89;40.77;100697.50;5012806;28;20050;-73
2023/08/16 04:51:12;;;;;;;8.50;5.70;;;;;;;31.83;41.10;100700.53;5009471;28;20053;-73
2023/08/16 04:53:40;;;;;;;12.77;6.53;;;;;;;31.76;41.56;100693.84;5021707;28;20057;-72
2023/08/16 04:56:09;;;;;;;10.35;6.00;;;;;;;31.70;43.15;100704.91;5013656;28;20101;-73
2023/08/16 04:58:37;;;;;;;12.25;6.03;;;;;;;31.63;43.92;100691.03;5009758;28;20047;-75
2023/08/16 05:01:09;;;;;;;10.50;6.30;;;;;;;31.56;43.14;100703.03;5008656;28;20053;-75
2023/08/16 05:03:38;;;;;;;8.98;6.35;;;;;;;31.50;42.38;100704.28;5014004;28;20046;-74
2023/08/16 05:06:08;;;;;;;11.48;6.07;;;;;;;31.44;41.98;100707.31;4998826;28;20442;-74
2023/08/16 05:08:39;;;;;;;11.57;6.20;;;;;;;31.38;42.62;100709.44;5010363;28;20062;-75
2023/08/16 05:11:10;;;;;;;11.32;6.07;;;;;;;31.29;41.87;100711.72;5001444;28;20046;-75
2023/08/16 05:13:39;;;;;;;9.93;5.97;;;;;;;31.23;43.34;100712.06;5003979;28;20047;-73
2023/08/16 05:16:07;;;;;;;9.60;6.00;;;;;;;31.18;42.42;100713.28;5007609;28;20112;-75
2023/08/16 05:18:36;;;;;;;9.63;6.05;;;;;;;31.13;42.22;100713.56;5013068;28;20137;-76
2023/08/16 05:21:04;;;;;;;9.57;6.20;;;;;;;31.04;41.57;100706.91;5006413;28;20041;-75
2023/08/16 05:23:37;;;;;;;10.73;5.80;;;;;;;30.97;43.06;100710.00;5013290;28;20074;-75
2023/08/16 05:26:06;;;;;;;10.13;5.57;;;;;;;30.92;42.37;100710.25;5023089;28;20092;-74
2023/08/16 05:28:35;;;;;;;9.15;5.80;;;;;;;30.85;42.62;100712.41;5026583;28;20056;-74
2023/08/16 05:31:15;;;;;;;9.77;5.68;;;;;;;30.80;42.54;100718.94;5028583;28;20050;-76
2023/08/16 05:33:48;;;;;;;8.98;5.43;;;;;;;30.75;42.20;100727.22;5027008;28;20045;-74
2023/08/16 05:36:17;;;;;;;10.00;4.93;;;;;;;30.73;41.03;100725.56;5012647;28;20527;-75
2023/08/16 05:38:48;;;;;;;9.82;5.05;;;;;;;30.71;41.08;100728.31;5011675;28;20148;-75
2023/08/16 05:41:21;;;;;;;9.30;4.65;;;;;;;30.71;41.00;100731.00;5011500;28;20398;-75
2023/08/16 05:43:49;;;;;;;8.27;4.15;;;;;;;30.72;39.98;100727.41;5012343;28;20053;-75
2023/08/16 05:46:18;;;;;;;7.43;4.70;;;;;;;30.72;39.76;100735.41;5011577;28;20046;-76
2023/08/16 05:48:46;;;;;;;9.73;5.40;;;;;;;30.75;39.80;100737.91;5007779;28;20046;-76
2023/08/16 05:51:23;;;;;;;7.78;4.97;;;;;;;30.74;40.89;100733.53;5006982;28;20161;-76
2023/08/16 05:53:53;;;;;;;9.85;5.07;;;;;;;30.71;41.56;100735.47;5008653;28;20045;-75
2023/08/16 05:56:22;;;;;;;9.65;6.25;;;;;;;30.72;41.05;100732.72;5010735;28;20257;-74
2023/08/16 05:58:50;;;;;;;14.00;5.85;;;;;;;30.69;40.72;100736.44;5007639;28;20492;-77
2023/08/16 06:01:20;;;;;;;10.10;5.63;;;;;;;30.65;43.16;100729.53;5011420;28;20593;-75
2023/08/16 06:03:50;;;;;;;8.48;5.72;;;;;;;30.61;42.38;100730.66;5010521;28;20042;-76
2023/08/16 06:06:19;;;;;;;8.93;5.45;;;;;;;30.56;42.10;100743.38;5003429;28;20052;-74
2023/08/16 06:08:47;;;;;;;10.20;4.97;;;;;;;30.53;41.27;100746.22;5008952;28;20066;-76
2023/08/16 06:11:21;;;;;;;9.00;5.72;;;;;;;30.51;42.72;100749.91;4980959;28;20043;-76
2023/08/16 06:13:50;;;;;;;6.07;4.75;;;;;;;30.46;42.64;100752.81;4987296;28;20105;-75
2023/08/16 06:16:18;;;;;;;8.30;5.13;;;;;;;30.42;42.22;100753.94;4989382;28;20052;-76
2023/08/16 06:18:49;;;;;;;10.07;4.65;;;;;;;30.36;40.70;100752.47;4982412;28;20078;-75
2023/08/16 06:21:17;;;;;;;12.43;4.53;;;;;;;30.34;41.73;100757.03;4989889;28;20046;-75
2023/08/16 06:23:56;;;;;;;10.25;4.68;;;;;;;30.31;40.64;100759.00;4982392;28;20051;-77
2023/08/16 06:26:26;;;;;;;8.90;4.30;;;;;;;30.26;40.58;100757.44;4984359;28;20125;-76
2023/08/16 06:28:54;;;;;;;11.35;4.28;;;;;;;30.23;40.59;100760.22;4982730;28;20054;-76
2023/08/16 06:31:24;;;;;;;9.85;4.85;;;;;;;30.20;41.09;100760.38;4981894;28;20047;-75
2023/08/16 06:33:55;;;;;;;8.95;4.40;;;;;;;30.15;41.51;100764.25;4981080;28;20078;-76
2023/08/16 06:36:24;;;;;;;10.85;5.03;;;;;;;30.08;41.95;100761.03;4983463;28;20073;-74
2023/08/16 06:38:53;;;;;;;10.45;4.93;;;;;;;30.01;43.52;100768.50;4979591;28;20053;-74
2023/08/16 06:41:24;;;;;;;8.48;4.38;;;;;;;29.92;41.76;100774.31;4984834;28;20050;-75
2023/08/16 06:43:57;;;;;;;11.35;4.93;;;;;;;29.88;42.68;100787.88;4986366;28;20043;-76
2023/08/16 06:46:25;;;;;;;16.10;5.82;;;;;;;29.82;43.05;100783.69;4990702;28;20663;-76
2023/08/16 06:48:54;;;;;;;18.63;6.88;;;;;;;29.73;42.97;100785.00;4979913;28;20050;-77
2023/08/16 06:51:27;;;;;;;19.92;7.15;;;;;;;29.63;43.11;100789.06;4981090;28;20049;-74
2023/08/16 06:53:58;;;;;;;14.07;5.78;;;;;;;29.53;42.48;100786.00;5003526;28;20154;-75
2023/08/16 06:56:27;;;;;;;15.27;5.63;;;;;;;29.47;42.36;100788.09;4983818;28;20043;-74
2023/08/16 06:58:57;;;;;;;15.07;6.13;;;;;;;29.41;42.18;100798.13;4994264;28;20473;-75
2023/08/16 07:01:25;;;;;;;14.32;6.30;;;;;;;29.36;42.61;100797.47;4987861;28;20441;-76
2023/08/16 07:03:59;;;;;;;12.63;5.50;;;;;;;29.33;42.25;100802.94;4982853;28;20050;-75
2023/08/16 07:06:31;;;;;;;10.95;5.32;;;;;;;29.28;42.88;100804.13;4985111;28;20050;-75
2023/08/16 07:09:00;;;;;;;10.23;5.40;;;;;;;29.18;43.19;100803.66;4993971;28;20061;-74
2023/08/16 07:11:31;;;;;;;11.07;5.65;;;;;;;29.16;43.56;100809.09;5002566;28;20046;-74
2023/08/16 07:14:02;;;;;;;11.55;5.20;;;;;;;29.04;44.08;100809.63;5010495;28;20056;-75
2023/08/16 07:16:31;;;;;;;11.63;5.53;;;;;;;28.96;43.91;100809.97;5003335;28;20041;-75
2023/08/16 07:19:04;;;;;;;12.60;5.68;;;;;;;28.90;43.95;100812.91;5006998;28;20073;-75
2023/08/16 07:21:35;;;;;;;9.00;5.72;;;;;;;28.82;43.85;100815.94;5003482;28;20046;-75
2023/08/16 07:24:03;;;;;;;13.00;6.47;;;;;;;28.73;44.03;100807.53;5006897;28;20057;-75
2023/08/16 07:26:32;;;;;;;12.00;5.18;;;;;;;28.59;44.20;100809.00;5011146;28;20100;-73
2023/08/16 07:29:02;;;;;;;8.80;5.05;;;;;;;28.54;44.36;100808.34;4999109;28;20049;-74
2023/08/16 07:31:31;;;;;;;10.95;5.55;;;;;;;28.49;44.46;100818.31;5000754;28;20057;-73
2023/08/16 07:34:06;;;;;;;14.27;5.32;;;;;;;28.47;45.09;100819.31;5004194;28;20053;-75
2023/08/16 07:36:35;;;;;;;12.95;5.82;;;;;;;28.45;44.52;100819.38;5003399;28;20050;-75
2023/08/16 07:39:04;;;;;;;10.75;4.63;;;;;;;28.41;45.43;100815.97;5003087;28;20084;-76
2023/08/16 07:41:33;;;;;;;10.77;5.13;;;;;;;28.39;45.39;100822.28;4992709;28;20049;-75
2023/08/16 07:44:06;;;;;;;9.93;5.03;;;;;;;28.30;44.24;100826.22;4995110;28;20046;-76
2023/08/16 07:46:34;;;;;;;10.45;5.18;;;;;;;28.24;45.07;100826.47;5003463;28;20049;-77
2023/08/16 07:49:03;;;;;;;14.48;6.63;;;;;;;28.15;46.70;100824.19;4996135;28;20127;-74
2023/08/16 07:51:31;;;;;;;12.23;5.65;;;;;;;28.02;44.95;100821.22;5017119;28;20053;-74
2023/08/16 07:54:00;;;;;;;12.20;5.40;;;;;;;27.94;45.94;100823.31;5020548;28;20075;-76
2023/08/16 07:56:36;;;;;;;11.68;4.70;;;;;;;27.89;46.46;100814.69;5004141;28;20053;-76
2023/08/16 07:59:06;;;;;;;13.45;6.43;;;;;;;27.86;46.14;100812.16;5008193;28;20752;-76
2023/08/16 08:01:35;;;;;;;9.10;5.20;;;;;;;27.83;46.29;100820.22;5007967;28;20050;-76
2023/08/16 08:04:07;;;;;;;8.52;4.57;;;;;;;27.77;45.84;100822.19;5010000;28;20080;-76
2023/08/16 08:06:36;;;;;;;13.27;5.15;;;;;;;27.73;46.05;100825.03;4998622;28;20046;-76
2023/08/16 08:09:05;;;;;;;11.60;5.20;;;;;;;27.66;46.19;100823.56;5007408;28;20061;-75
2023/08/16 08:11:33;;;;;;;13.75;5.35;;;;;;;27.61;45.88;100820.25;5005503;28;20064;-76
2023/08/16 08:14:02;;;;;;;13.55;5.30;;;;;;;27.52;46.11;100816.16;5005214;28;20042;-75
2023/08/16 08:16:34;;;;;;;11.18;5.80;;;;;;;27.45;46.17;100818.19;5007455;28;20046;-75
2023/08/16 08:19:03;;;;;;;9.27;5.93;;;;;;;27.37;46.85;100814.97;4998237;28;20056;-75
2023/08/16 08:21:31;;;;;;;10.75;5.18;;;;;;;27.30;46.82;100811.66;5006871;28;20053;-75
2023/08/16 08:24:00;;;;;;;9.30;4.72;;;;;;;27.23;46.92;100809.31;4996981;28;20456;-76
2023/08/16 08:26:31;;;;;;;10.15;5.18;;;;;;;27.15;47.29;100809.59;5012024;28;20562;-76
2023/08/16 08:28:59;;;;;;;11.48;4.95;;;;;;;27.11;47.31;100810.63;4996315;28;20078;-74
2023/08/16 08:31:28;;;;;;;11.70;4.95;;;;;;;27.07;47.52;100803.72;4998133;28;20047;-75
2023/08/16 08:33:58;;;;;;;9.95;5.70;;;;;;;27.04;47.83;100804.69;5002683;28;20050;-73
2023/08/16 08:36:27;;;;;;;10.80;5.30;;;;;;;26.94;48.14;100800.66;4999392;28;20038;-74
2023/08/16 08:39:05;;;;;;;10.30;5.47;;;;;;;26.92;48.34;100806.03;5000432;28;20041;-74
2023/08/16 08:41:34;;;;;;;10.77;5.43;;;;;;;26.87;48.42;100813.31;5019309;28;20576;-74
2023/08/16 08:44:02;;;;;;;12.60;5.18;;;;;;;26.81;48.59;100812.66;5005652;28;20050;-74
2023/08/16 08:46:31;;;;;;;10.60;4.78;;;;;;;26.71;49.56;100807.69;5002689;28;20050;-74
2023/08/16 08:49:04;;;;;;;10.90;5.40;;;;;;;26.62;49.74;100812.47;5007142;28;20046;-75
2023/08/16 08:51:35;;;;;;;13.70;5.40;;;;;;;26.54;50.11;100805.63;5003011;28;20053;-73
2023/08/16 08:54:04;;;;;;;9.60;4.90;;;;;;;26.48;50.28;100808.50;5021600;28;20115;-74
2023/08/16 08:56:33;;;;;;;17.27;5.40;;;;;;;26.43;50.98;100805.13;5007425;28;20041;-74
2023/08/16 08:59:09;;;;;;;12.32;4.93;;;;;;;26.41;50.88;100798.16;5002135;28;20050;-74
2023/08/16 09:01:38;;;;;;;10.63;5.30;;;;;;;26.38;51.04;100809.72;5007072;28;20205;-73
2023/08/16 09:04:09;;;;;;;8.52;5.10;;;;;;;26.35;51.34;100804.56;5004392;28;20138;-75
2023/08/16 09:06:38;;;;;;;9.18;5.30;;;;;;;26.31;52.02;100809.09;5006014;28;20050;-75
2023/08/16 09:09:09;;;;;;;14.98;5.18;;;;;;;26.27;51.85;100806.59;4992969;28;20112;-75
2023/08/16 09:11:38;;;;;;;8.63;5.30;;;;;;;26.22;51.55;100804.09;5002855;28;20471;-77
2023/08/16 09:14:07;;;;;;;10.27;5.30;;;;;;;26.18;52.16;100801.59;4999978;28;20046;-75
2023/08/16 09:16:36;;;;;;;10.05;5.55;;;;;;;26.12;51.66;100802.69;4998047;28;20437;-75
2023/08/16 09:19:14;;;;;;;15.75;5.38;;;;;;;26.06;52.21;100800.25;5008006;28;20050;-75
2023/08/16 09:21:46;;;;;;;10.40;5.88;;;;;;;26.00;52.12;100801.34;5012167;28;20049;-75
2023/08/16 09:24:14;;;;;;;11.43;5.07;;;;;;;25.96;52.80;100791.75;5008457;28;20069;-75
2023/08/16 09:26:46;;;;;;;9.80;5.82;;;;;;;25.90;52.61;100797.25;5005004;28;20496;-75
2023/08/16 09:29:17;;;;;;;12.05;5.90;;;;;;;25.85;53.15;100793.84;4998991;28;20046;-76
2023/08/16 09:31:46;;;;;;;11.07;5.80;;;;;;;25.78;53.19;100792.34;5007006;28;20042;-75
2023/08/16 09:34:15;;;;;;;12.38;5.75;;;;;;;25.71;53.18;100800.47;5002459;28;20412;-75
2023/08/16 09:36:57;;;;;;;11.27;5.10;;;;;;;25.65;53.39;100798.00;5007390;28;20058;-75
2023/08/16 09:39:28;;;;;;;11.98;5.28;;;;;;;25.60;54.08;100804.41;5007235;28;20058;-75
2023/08/16 09:41:56;;;;;;;14.52;5.50;;;;;;;25.55;53.93;100793.94;5008234;28;20485;-74
2023/08/16 09:44:36;;;;;;;9.13;4.93;;;;;;;25.55;54.79;100790.44;5009154;28;20046;-73
2023/08/16 09:47:14;;;;;;;10.98;5.25;;;;;;;25.52;55.22;100804.66;5007384;28;20046;-73
2023/08/16 09:49:44;;;;;;;7.13;4.70;;;;;;;25.47;55.58;100785.34;5003090;28;20136;-75
2023/08/16 09:52:16;;;;;;;10.45;5.28;;;;;;;25.43;55.69;100789.91;5006001;28;20054;-74
2023/08/16 09:54:48;;;;;;;8.95;4.80;;;;;;;25.37;55.39;100802.47;5021117;28;20080;-74
2023/08/16 09:57:17;;;;;;;10.43;4.85;;;;;;;25.27;57.77;100796.59;5006287;28;20042;-73
2023/08/16 09:59:47;;;;;;;12.38;5.18;;;;;;;25.15;57.79;100797.81;5007432;28;20057;-74
2023/08/16 10:02:20;;;;;;;9.95;4.55;;;;;;;25.09;57.94;100798.00;5011468;28;20121;-74
2023/08/16 10:04:53;;;;;;;9.90;5.10;;;;;;;25.07;57.70;100797.16;5002552;28;20042;-74
2023/08/16 10:07:25;;;;;;;9.85;4.68;;;;;;;25.06;58.04;100795.44;5000089;28;20054;-74
2023/08/16 10:09:55;;;;;;;11.65;4.88;;;;;;;25.04;58.75;100799.91;5006594;28;20061;-74
2023/08/16 10:12:24;;;;;;;10.18;4.75;;;;;;;25.02;58.90;100794.66;4997585;28;20127;-75
2023/08/16 10:14:53;;;;;;;13.18;4.53;;;;;;;25.01;58.15;100800.84;5002874;28;20099;-75
2023/08/16 10:17:23;;;;;;;8.55;4.68;;;;;;;24.99;58.38;100796.50;5010929;28;20050;-76
2023/08/16 10:19:59;;;;;;;10.88;5.00;;;;;;;24.96;57.89;100796.63;5004575;28;20050;-75
2023/08/16 10:22:36;;;;;;;8.77;5.30;;;;;;;24.92;57.69;100794.97;4999434;28;20051;-75
2023/08/16 10:25:11;;;;;;;11.35;5.30;;;;;;;24.87;57.85;100801.25;5009401;28;20054;-74
2023/08/16 10:27:43;;;;;;;9.05;5.05;;;;;;;24.82;58.32;100804.97;4998528;28;20053;-75
2023/08/16 10:30:16;;;;;;;8.93;4.82;;;;;;;24.76;58.12;100800.72;5009998;28;20155;-74
2023/08/16 10:32:46;;;;;;;9.63;4.93;;;;;;;24.71;58.47;100796.47;4999241;28;20042;-75
2023/08/16 10:35:16;;;;;;;10.65;5.05;;;;;;;24.64;59.02;100811.63;5008993;28;20134;-73
2023/08/16 10:37:47;;;;;;;9.43;4.90;;;;;;;24.53;61.72;100808.41;5004531;28;20043;-72
2023/08/16 10:40:20;;;;;;;10.18;4.97;;;;;;;24.39;61.84;100801.69;5006400;28;20137;-74
2023/08/16 10:42:57;;;;;;;8.82;4.93;;;;;;;24.32;62.04;100816.00;5000112;28;20049;-74
2023/08/16 10:45:27;;;;;;;10.07;5.18;;;;;;;24.25;62.75;100825.00;5000648;28;20594;-74
2023/08/16 10:47:56;;;;;;;8.57;5.00;;;;;;;24.13;63.44;100814.75;5003505;28;20042;-73
2023/08/16 10:50:41;;;;;;;10.93;5.90;;;;;;;24.01;64.31;100811.50;5011884;28;20065;-74
2023/08/16 10:53:12;;;;;;;8.27;5.00;;;;;;;23.98;63.29;100816.00;5012164;28;20045;-72
2023/08/16 10:55:41;;;;;;;10.80;4.78;;;;;;;23.95;64.43;100810.78;5018208;28;20554;-73
2023/08/16 10:58:22;;;;;;;10.45;4.75;;;;;;;23.94;64.37;100819.66;5009401;28;20132;-74
2023/08/16 11:00:58;;;;;;;9.55;5.05;;;;;;;23.92;64.30;100818.81;5007150;28;20071;-75
2023/08/16 11:03:40;;;;;;;9.10;4.85;;;;;;;23.90;64.65;100823.25;5007036;28;20096;-74
2023/08/16 11:06:10;;;;;;;12.55;5.15;;;;;;;23.86;65.19;100817.16;5004391;28;20073;-73
2023/08/16 11:08:42;;;;;;;10.77;4.95;;;;;;;23.83;65.63;100817.25;5005628;28;20125;-74
2023/08/16 11:11:13;;;;;;;9.57;5.40;;;;;;;23.81;65.65;100819.91;5007955;28;21249;-73
2023/08/16 11:13:43;;;;;;;10.48;5.75;;;;;;;23.79;65.71;100810.31;5008328;28;20052;-75
2023/08/16 11:16:13;;;;;;;11.10;5.13;;;;;;;23.77;66.08;100814.75;5007716;28;20056;-73
2023/08/16 11:18:43;;;;;;;11.55;5.28;;;;;;;23.78;66.21;100814.72;5003973;28;20050;-73
2023/08/16 11:21:14;;;;;;;10.77;5.10;;;;;;;23.73;65.65;100820.97;5011512;28;20081;-75
2023/08/16 11:23:47;;;;;;;12.80;5.53;;;;;;;23.65;66.60;100817.66;5011823;28;20070;-73
2023/08/16 11:26:16;;;;;;;9.90;5.40;;;;;;;23.45;68.48;100805.78;5008288;28;20668;-74
2023/08/16 11:28:44;;;;;;;11.35;5.03;;;;;;;23.41;68.87;100827.91;5004467;28;20046;-73
2023/08/16 11:31:23;;;;;;;;;;;;;;;;;;;;;
2023/08/16 11:33:52;;;;;;;8.07;4.63;;;;;;;23.31;68.98;100824.56;5014391;28;20097;-74
2023/08/16 11:36:20;;;;;;;9.32;5.50;;;;;;;23.29;69.13;100826.38;5018421;28;20042;-75
2023/08/16 11:38:52;;;;;;;8.68;4.78;;;;;;;23.28;69.27;100823.78;5008510;28;20139;-73
2023/08/16 11:41:21;;;;;;;10.73;5.25;;;;;;;23.26;68.74;100831.72;5015770;28;20557;-73
2023/08/16 11:43:59;;;;;;;9.77;5.18;;;;;;;23.18;68.85;100826.63;5012546;28;20046;-74